Time;durP1;ratioP1;P1;durP2;ratioP2;P2;SDS_P1;SDS_P2;PMS_P1;PMS_P2;Temp;Humidity;BMP_temperature;BMP_pressure;BME280_temperature;BME280_humidity;BME280_pressure;Samples;Min_cycle;Max_cycle;Signal;HPM_P1;HPM_P2
2023/02/16 00:01:24;;;;;;;16.57;13.57;;;6.90;99.90;;;;;;4993021;28;20447;-76
2023/02/16 00:03:54;;;;;;;15.80;14.30;;;7.00;99.90;;;;;;4994109;28;20553;-75
2023/02/16 00:06:23;;;;;;;22.13;16.67;;;6.80;99.90;;;;;;5002975;28;20481;-75
2023/02/16 00:08:53;;;;;;;20.27;17.70;;;6.80;99.90;;;;;;5003174;28;20459;-75
2023/02/16 00:14:22;;;;;;;16.50;15.07;;;6.70;99.90;;;;;;4998514;28;20482;-76
2023/02/16 00:16:50;;;;;;;16.83;15.23;;;6.80;99.90;;;;;;5002069;28;20845;-76
2023/02/16 00:19:23;;;;;;;16.37;14.67;;;6.70;99.90;;;;;;5000031;28;21155;-75
2023/02/16 00:21:53;;;;;;;16.60;15.10;;;6.50;99.90;;;;;;4999690;28;20487;-75
2023/02/16 00:24:21;;;;;;;17.30;15.43;;;6.50;99.90;;;;;;5002495;28;20467;-76
2023/02/16 00:26:50;;;;;;;16.10;14.50;;;6.40;99.90;;;;;;4999220;28;20469;-74
2023/02/16 00:29:22;;;;;;;16.43;14.97;;;6.40;99.90;;;;;;4997798;28;20517;-77
2023/02/16 00:31:51;;;;;;;17.73;15.67;;;6.30;99.90;;;;;;4997199;28;20477;-75
2023/02/16 00:34:30;;;;;;;16.07;14.67;;;6.40;99.90;;;;;;4999731;28;20527;-76
2023/02/16 00:37:00;;;;;;;15.77;14.27;;;6.40;99.90;;;;;;4995303;28;20458;-77
2023/02/16 00:39:28;;;;;;;16.00;14.47;;;6.50;99.90;;;;;;4997972;28;20449;-76
2023/02/16 00:41:59;;;;;;;16.20;14.80;;;6.30;99.90;;;;;;5000418;28;20468;-76
2023/02/16 00:44:33;;;;;;;18.43;16.30;;;6.40;99.90;;;;;;5000070;28;20479;-75
2023/02/16 00:47:20;;;;;;;17.73;16.13;;;6.30;99.90;;;;;;4996384;28;20479;-75
2023/02/16 00:49:52;;;;;;;16.80;15.50;;;6.30;99.90;;;;;;4999355;28;20475;-76
2023/02/16 00:52:35;;;;;;;18.00;16.50;;;6.30;99.90;;;;;;4997385;28;20471;-75
2023/02/16 00:55:09;;;;;;;16.70;15.40;;;6.30;99.90;;;;;;4996494;28;20493;-74
2023/02/16 00:57:40;;;;;;;17.53;15.93;;;6.30;99.90;;;;;;5000336;28;20450;-75
2023/02/16 01:00:15;;;;;;;17.43;16.03;;;6.20;99.90;;;;;;5000449;28;20455;-75
2023/02/16 01:02:43;;;;;;;18.60;16.77;;;6.30;99.90;;;;;;5001360;28;20507;-73
2023/02/16 01:05:13;;;;;;;18.03;16.23;;;6.30;99.90;;;;;;4999487;28;20552;-75
2023/02/16 01:13:14;;;;;;;17.87;16.53;;;6.30;99.90;;;;;;5002206;28;20557;-75
2023/02/16 01:15:43;;;;;;;17.43;16.13;;;6.40;99.90;;;;;;4999286;28;20459;-76
2023/02/16 01:18:13;;;;;;;17.30;15.80;;;6.40;99.90;;;;;;5002190;28;20578;-75
2023/02/16 01:20:43;;;;;;;15.53;14.23;;;6.30;99.90;;;;;;4998819;28;20874;-77
2023/02/16 01:23:12;;;;;;;16.50;15.10;;;6.30;99.90;;;;;;4994182;28;20468;-76
2023/02/16 01:25:41;;;;;;;17.30;15.80;;;6.10;99.90;;;;;;5002814;28;20551;-75
2023/02/16 01:28:19;;;;;;;16.70;15.40;;;6.30;99.90;;;;;;5000876;28;20440;-76
2023/02/16 01:30:47;;;;;;;16.80;15.30;;;6.20;99.90;;;;;;5000367;28;20465;-76
2023/02/16 01:33:15;;;;;;;17.57;15.97;;;6.10;99.90;;;;;;4999394;28;20450;-76
2023/02/16 01:35:45;;;;;;;15.07;13.97;;;6.20;99.90;;;;;;4997015;28;20458;-75
2023/02/16 01:38:17;;;;;;;16.73;15.23;;;6.20;99.90;;;;;;4998560;28;20608;-75
2023/02/16 01:40:52;;;;;;;18.10;15.60;;;6.10;99.90;;;;;;4997861;28;20451;-75
2023/02/16 01:43:24;;;;;;;16.27;14.77;;;6.10;99.90;;;;;;4998938;28;20508;-75
2023/02/16 01:46:07;;;;;;;16.73;15.00;;;6.10;99.90;;;;;;4995060;28;20463;-75
2023/02/16 01:48:36;;;;;;;14.83;13.73;;;6.10;99.90;;;;;;5000095;28;20512;-75
2023/02/16 01:51:13;;;;;;;15.60;14.30;;;6.00;99.90;;;;;;5000530;28;20509;-76
2023/02/16 01:53:45;;;;;;;16.17;14.77;;;6.00;99.90;;;;;;4999447;28;20473;-75
2023/02/16 01:56:21;;;;;;;16.80;15.40;;;5.90;99.90;;;;;;4997891;28;21150;-75
2023/02/16 01:58:54;;;;;;;15.83;14.43;;;5.90;99.90;;;;;;5000078;28;20947;-75
2023/02/16 02:01:39;;;;;;;16.20;14.73;;;6.00;99.90;;;;;;4993303;28;20458;-75
2023/02/16 02:07:11;;;;;;;15.67;13.83;;;6.00;99.90;;;;;;4998437;28;20481;-76
2023/02/16 02:09:44;;;;;;;15.20;14.13;;;6.00;99.90;;;;;;4997541;28;20460;-75
2023/02/16 02:12:21;;;;;;;17.10;15.63;;;5.90;99.90;;;;;;5001185;28;20512;-75
2023/02/16 02:14:50;;;;;;;15.47;14.03;;;5.80;99.90;;;;;;4998516;28;20898;-75
2023/02/16 02:17:21;;;;;;;16.43;14.93;;;5.80;99.90;;;;;;4997836;28;20443;-75
2023/02/16 02:19:59;;;;;;;16.83;15.43;;;5.80;99.90;;;;;;4994504;28;20462;-75
2023/02/16 02:23:32;;;;;;;15.20;13.90;;;5.90;99.90;;;;;;4996412;28;20964;-76
2023/02/16 02:26:43;;;;;;;14.97;13.77;;;5.80;99.90;;;;;;4945671;28;20482;-76
2023/02/16 02:29:37;;;;;;;15.17;13.80;;;5.60;99.90;;;;;;4994150;28;20449;-77
2023/02/16 02:32:16;;;;;;;14.77;13.67;;;5.60;99.90;;;;;;4998091;28;20580;-76
2023/02/16 02:34:58;;;;;;;15.37;13.93;;;5.40;99.90;;;;;;4996310;28;20477;-77
2023/02/16 02:37:38;;;;;;;16.20;14.63;;;5.60;99.90;;;;;;4992987;28;20540;-77
2023/02/16 02:40:12;;;;;;;15.97;14.30;;;5.50;99.90;;;;;;4995023;28;20474;-77
2023/02/16 02:42:48;;;;;;;15.97;14.57;;;5.50;99.90;;;;;;4995562;28;21061;-77
2023/02/16 02:45:24;;;;;;;14.50;13.30;;;5.40;99.90;;;;;;4994968;28;21015;-78
2023/02/16 02:47:52;;;;;;;16.67;15.13;;;5.40;99.90;;;;;;4997801;28;20466;-76
2023/02/16 02:51:27;;;;;;;14.90;13.70;;;5.50;99.90;;;;;;4999243;28;20451;-77
2023/02/16 02:53:36;;;;;;;16.37;15.03;;;5.50;99.90;;;;;;4992093;28;20510;-75
2023/02/16 03:01:50;;;;;;;15.90;13.50;;;5.50;99.90;;;;;;5001065;28;20455;-76
2023/02/16 03:04:22;;;;;;;14.47;13.17;;;5.50;99.90;;;;;;4995211;28;20571;-75
2023/02/16 03:06:52;;;;;;;14.67;13.37;;;5.40;99.90;;;;;;4998703;28;20520;-76
2023/02/16 03:09:21;;;;;;;14.07;12.97;;;5.50;99.90;;;;;;4997980;28;20564;-76
2023/02/16 03:14:43;;;;;;;14.30;13.00;;;5.60;99.90;;;;;;4998973;28;20470;-75
2023/02/16 03:31:20;;;;;;;14.40;13.20;;;5.60;99.90;;;;;;4995462;28;20513;-75
2023/02/16 03:33:53;;;;;;;14.30;13.00;;;5.50;99.90;;;;;;4997892;28;20579;-76
2023/02/16 03:36:22;;;;;;;14.93;13.50;;;5.40;99.90;;;;;;4996478;28;20970;-76
2023/02/16 03:38:51;;;;;;;15.77;14.27;;;5.50;99.90;;;;;;4995179;28;20454;-74
2023/02/16 03:41:19;;;;;;;14.30;13.20;;;5.50;99.90;;;;;;5004130;28;20454;-76
2023/02/16 03:43:47;;;;;;;15.20;14.10;;;5.50;99.90;;;;;;5001826;28;20496;-76
2023/02/16 03:46:16;;;;;;;15.37;13.40;;;5.50;99.90;;;;;;4995438;28;20457;-76
2023/02/16 03:48:44;;;;;;;14.50;13.30;;;5.40;99.90;;;;;;5002258;28;20583;-76
2023/02/16 03:51:13;;;;;;;14.43;13.00;;;5.40;99.90;;;;;;4999675;28;20464;-76
2023/02/16 03:53:41;;;;;;;15.23;13.90;;;5.40;99.90;;;;;;5004156;28;20492;-75
2023/02/16 03:56:10;;;;;;;13.17;12.07;;;5.40;99.90;;;;;;5003104;28;20450;-75
2023/02/16 03:58:38;;;;;;;14.30;13.17;;;5.50;99.90;;;;;;5002476;28;20493;-74
2023/02/16 04:01:06;;;;;;;13.20;12.20;;;5.60;99.90;;;;;;4998431;28;20545;-75
2023/02/16 04:03:34;;;;;;;13.40;12.40;;;5.50;99.90;;;;;;5002459;28;20545;-75
2023/02/16 04:06:02;;;;;;;14.33;13.00;;;5.40;99.90;;;;;;5000613;28;20526;-76
2023/02/16 04:08:32;;;;;;;12.73;11.73;;;5.40;99.90;;;;;;5008220;28;20543;-75
2023/02/16 04:12:34;;;;;;;13.27;12.00;;;5.50;99.90;;;;;;5001201;28;20453;-76
2023/02/16 04:13:47;;;;;;;12.77;11.77;;;5.40;99.90;;;;;;4997092;28;20548;-76
2023/02/16 04:16:15;;;;;;;14.07;12.63;;;5.30;99.90;;;;;;4996883;28;20452;-76
2023/02/16 04:18:43;;;;;;;12.70;11.70;;;5.30;99.90;;;;;;5000225;28;20956;-75
2023/02/16 04:21:11;;;;;;;16.17;14.33;;;5.40;99.90;;;;;;4999175;28;20442;-75
2023/02/16 04:23:41;;;;;;;15.13;13.63;;;5.30;99.90;;;;;;5000659;28;20468;-76
2023/02/16 04:26:09;;;;;;;15.70;13.93;;;5.30;99.90;;;;;;4998208;28;20540;-75
2023/02/16 04:28:37;;;;;;;14.67;13.23;;;5.20;99.90;;;;;;5002530;28;20496;-75
2023/02/16 04:31:05;;;;;;;15.27;13.67;;;5.30;99.90;;;;;;4995860;28;20469;-76
2023/02/16 04:33:34;;;;;;;14.00;12.77;;;5.40;99.90;;;;;;4997898;28;20547;-76
2023/02/16 04:36:02;;;;;;;14.03;12.80;;;5.30;99.90;;;;;;4998334;28;20532;-76
2023/02/16 04:38:30;;;;;;;13.20;12.00;;;5.20;99.90;;;;;;4998311;28;20450;-75
2023/02/16 04:41:00;;;;;;;13.03;12.00;;;5.30;99.90;;;;;;4999889;28;20454;-75
2023/02/16 04:43:28;;;;;;;13.17;11.97;;;5.40;99.90;;;;;;4999747;28;20509;-75
2023/02/16 04:45:56;;;;;;;13.00;11.97;;;5.30;99.90;;;;;;4998659;28;20490;-76
2023/02/16 04:48:24;;;;;;;12.27;11.37;;;5.50;99.90;;;;;;4997071;28;20497;-77
2023/02/16 04:50:52;;;;;;;13.77;12.57;;;5.70;99.90;;;;;;4998244;28;20511;-74
2023/02/16 04:53:21;;;;;;;13.27;11.97;;;5.50;99.90;;;;;;5004025;28;20476;-76
2023/02/16 04:55:49;;;;;;;14.13;13.03;;;5.50;99.90;;;;;;5001130;28;20485;-75
2023/02/16 04:58:19;;;;;;;12.40;11.40;;;5.60;99.90;;;;;;5002330;28;20458;-75
2023/02/16 05:00:47;;;;;;;14.07;12.80;;;5.60;99.90;;;;;;5001803;28;20486;-76
2023/02/16 05:03:15;;;;;;;13.97;12.87;;;5.60;99.90;;;;;;5003007;28;20454;-75
2023/02/16 05:05:43;;;;;;;13.13;12.03;;;5.60;99.90;;;;;;5004701;28;20461;-74
2023/02/16 05:08:11;;;;;;;14.27;13.30;;;5.40;99.90;;;;;;5001825;28;20485;-76
2023/02/16 05:10:39;;;;;;;13.50;12.40;;;5.40;99.90;;;;;;4998956;28;20454;-77
2023/02/16 05:15:55;;;;;;;13.10;11.90;;;5.30;99.90;;;;;;4998181;28;20808;-76
2023/02/16 05:18:23;;;;;;;14.33;13.07;;;5.20;99.90;;;;;;4998929;28;21048;-75
2023/02/16 05:23:37;;;;;;;14.07;12.87;;;5.30;99.90;;;;;;5001312;28;21009;-75
2023/02/16 05:26:06;;;;;;;13.17;11.97;;;5.40;99.90;;;;;;4998886;28;20464;-75
2023/02/16 05:28:34;;;;;;;13.80;12.80;;;5.40;99.90;;;;;;4997273;28;20568;-77
2023/02/16 05:31:03;;;;;;;13.57;12.40;;;5.60;99.90;;;;;;4998352;28;20458;-74
2023/02/16 05:33:32;;;;;;;14.50;13.10;;;5.70;99.90;;;;;;4997784;28;20493;-77
2023/02/16 05:36:00;;;;;;;14.10;12.80;;;5.90;99.90;;;;;;4995557;28;20454;-77
2023/02/16 05:38:28;;;;;;;15.77;14.57;;;6.00;99.90;;;;;;5000441;28;21145;-75
2023/02/16 05:40:56;;;;;;;15.40;14.13;;;6.10;99.90;;;;;;4997324;28;20445;-76
2023/02/16 05:43:25;;;;;;;15.57;14.27;;;6.20;99.90;;;;;;4990955;28;20469;-75
2023/02/16 05:45:53;;;;;;;14.70;13.30;;;6.30;99.90;;;;;;4993912;28;20458;-76
2023/02/16 05:48:22;;;;;;;14.40;13.20;;;6.40;99.90;;;;;;4998348;28;20482;-75
2023/02/16 05:50:53;;;;;;;14.97;13.67;;;6.40;99.90;;;;;;4997205;28;20521;-76
2023/02/16 05:53:21;;;;;;;15.50;14.30;;;6.30;99.90;;;;;;4989920;28;20459;-75
2023/02/16 05:55:49;;;;;;;15.43;14.17;;;6.40;99.90;;;;;;4996115;28;20469;-73
2023/02/16 05:58:18;;;;;;;15.50;14.30;;;6.50;99.90;;;;;;4993745;28;20472;-75
2023/02/16 06:00:46;;;;;;;16.07;14.67;;;6.60;99.90;;;;;;4992662;28;20461;-76
2023/02/16 06:03:14;;;;;;;16.20;14.80;;;6.60;99.90;;;;;;4995437;28;20458;-75
2023/02/16 06:05:44;;;;;;;15.43;14.07;;;6.60;99.90;;;;;;4997066;28;20470;-76
2023/02/16 06:08:12;;;;;;;15.83;14.33;;;6.50;99.90;;;;;;4996918;28;21012;-75
2023/02/16 06:10:40;;;;;;;14.57;13.47;;;6.50;99.90;;;;;;4994788;28;21006;-76
2023/02/16 06:13:08;;;;;;;15.77;14.20;;;6.40;99.90;;;;;;4999985;28;20522;-75
2023/02/16 06:15:36;;;;;;;16.73;15.33;;;6.30;99.90;;;;;;4995644;28;20463;-76
2023/02/16 06:18:04;;;;;;;15.57;14.30;;;6.20;99.90;;;;;;4994410;28;20565;-75
2023/02/16 06:20:32;;;;;;;17.80;16.20;;;6.00;99.90;;;;;;4995344;28;20484;-75
2023/02/16 06:23:02;;;;;;;14.80;13.80;;;5.90;99.90;;;;;;4996695;28;20455;-75
2023/02/16 06:25:30;;;;;;;15.40;14.23;;;5.80;99.90;;;;;;4992095;28;21020;-75
2023/02/16 06:27:58;;;;;;;15.70;14.50;;;5.90;99.90;;;;;;4996253;28;20485;-74
2023/02/16 06:30:26;;;;;;;15.90;14.40;;;5.90;99.90;;;;;;4991467;28;20613;-76
2023/02/16 06:32:55;;;;;;;17.13;15.33;;;5.90;99.90;;;;;;4993863;28;20873;-75
2023/02/16 06:35:23;;;;;;;17.10;15.77;;;6.00;99.90;;;;;;4993517;28;20486;-75
2023/02/16 06:37:51;;;;;;;18.00;16.37;;;5.90;99.90;;;;;;4995208;28;20466;-76
2023/02/16 06:40:21;;;;;;;17.33;15.83;;;5.80;99.90;;;;;;4996827;28;20463;-76
2023/02/16 06:42:49;;;;;;;15.23;13.93;;;5.80;99.90;;;;;;4991814;28;20481;-75
2023/02/16 06:45:18;;;;;;;19.30;17.47;;;5.90;99.90;;;;;;4988770;28;20473;-75
2023/02/16 06:47:46;;;;;;;16.37;14.70;;;5.80;99.90;;;;;;5011794;28;20806;-75
2023/02/16 06:50:14;;;;;;;16.30;15.00;;;5.80;99.90;;;;;;4997409;28;20574;-74
2023/02/16 06:52:42;;;;;;;16.40;15.10;;;5.80;99.90;;;;;;4997312;28;20859;-77
2023/02/16 06:55:10;;;;;;;16.30;15.00;;;5.80;99.90;;;;;;5002186;28;21069;-76
2023/02/16 06:57:39;;;;;;;17.13;15.37;;;6.00;99.90;;;;;;5007982;28;20460;-74
2023/02/16 07:00:09;;;;;;;16.63;15.23;;;6.10;99.90;;;;;;4996857;28;20537;-75
2023/02/16 07:02:37;;;;;;;17.67;16.23;;;6.20;99.90;;;;;;5005819;28;21149;-76
2023/02/16 07:05:05;;;;;;;17.80;16.20;;;6.20;99.90;;;;;;5000748;28;21042;-75
2023/02/16 07:07:33;;;;;;;16.30;15.00;;;6.30;99.90;;;;;;5001143;28;20802;-75
2023/02/16 07:10:02;;;;;;;15.90;14.60;;;6.20;99.90;;;;;;4996168;28;20986;-75
2023/02/16 07:12:30;;;;;;;22.33;20.03;;;6.20;99.90;;;;;;4998491;28;20522;-76
2023/02/16 07:14:59;;;;;;;18.53;16.73;;;6.10;99.90;;;;;;4999621;28;21284;-75
2023/02/16 07:17:27;;;;;;;17.17;15.50;;;6.00;99.90;;;;;;4999710;28;20507;-75
2023/02/16 07:19:55;;;;;;;16.37;14.80;;;6.00;99.90;;;;;;5001153;28;20459;-77
2023/02/16 07:22:28;;;;;;;17.97;16.47;;;6.20;99.90;;;;;;5001293;28;20465;-77
2023/02/16 07:24:57;;;;;;;18.70;16.90;;;6.20;99.90;;;;;;4999965;28;20473;-77
2023/02/16 07:27:26;;;;;;;16.87;15.40;;;6.10;99.90;;;;;;4998056;28;20465;-76
2023/02/16 07:29:54;;;;;;;18.20;16.50;;;6.10;99.90;;;;;;4998799;28;20513;-75
2023/02/16 07:32:23;;;;;;;20.20;17.00;;;6.20;99.90;;;;;;4999113;28;20541;-75
2023/02/16 07:34:52;;;;;;;18.50;16.80;;;6.20;99.90;;;;;;4995718;28;20831;-75
2023/02/16 07:37:20;;;;;;;18.13;16.53;;;6.20;99.90;;;;;;4996393;28;20444;-76
2023/02/16 07:39:48;;;;;;;17.80;16.20;;;6.30;99.90;;;;;;4996785;28;20517;-76
2023/02/16 07:42:16;;;;;;;17.63;15.23;;;6.50;99.90;;;;;;4995598;28;20458;-76
2023/02/16 07:44:44;;;;;;;17.70;16.10;;;6.60;99.90;;;;;;4995555;28;20474;-75
2023/02/16 07:47:13;;;;;;;17.60;16.30;;;6.80;99.90;;;;;;4993860;28;20451;-76
2023/02/16 07:49:42;;;;;;;19.23;17.33;;;7.00;99.90;;;;;;4992021;28;20885;-76
2023/02/16 07:52:11;;;;;;;19.60;18.00;;;7.20;99.90;;;;;;4993198;28;20472;-76
2023/02/16 07:54:39;;;;;;;21.13;19.00;;;7.30;99.90;;;;;;4995461;28;20478;-75
2023/02/16 07:57:07;;;;;;;19.93;18.10;;;7.50;99.90;;;;;;4994875;28;20449;-77
2023/02/16 07:59:35;;;;;;;21.40;19.40;;;7.70;99.90;;;;;;4995362;28;20469;-77
2023/02/16 08:02:03;;;;;;;21.50;19.57;;;7.90;99.90;;;;;;4991899;28;20456;-76
2023/02/16 08:04:32;;;;;;;23.00;19.53;;;8.20;99.90;;;;;;4996831;28;20864;-76
2023/02/16 08:07:01;;;;;;;22.73;20.40;;;8.40;99.90;;;;;;4996459;28;20449;-76
2023/02/16 08:09:32;;;;;;;20.80;19.17;;;8.50;99.90;;;;;;4996432;28;20983;-78
2023/02/16 08:12:01;;;;;;;19.97;17.90;;;8.70;99.90;;;;;;4991392;28;20823;-77
2023/02/16 08:14:29;;;;;;;21.83;20.00;;;8.80;99.90;;;;;;4997341;28;20484;-78
2023/02/16 08:16:57;;;;;;;20.10;18.37;;;9.00;99.90;;;;;;4993717;28;20460;-76
2023/02/16 08:19:26;;;;;;;18.87;17.40;;;9.20;99.90;;;;;;4996691;28;20600;-75
2023/02/16 08:21:54;;;;;;;18.27;16.97;;;9.30;99.90;;;;;;4995958;28;20585;-76
2023/02/16 08:24:23;;;;;;;18.93;17.53;;;9.50;99.90;;;;;;4994590;28;20477;-79
2023/02/16 08:26:52;;;;;;;19.00;17.60;;;9.90;99.90;;;;;;4999696;28;20458;-77
2023/02/16 08:29:21;;;;;;;20.00;18.60;;;10.20;99.90;;;;;;5000241;28;20550;-77
2023/02/16 08:31:50;;;;;;;19.57;17.97;;;10.40;99.90;;;;;;4998652;28;20545;-77
2023/02/16 08:34:20;;;;;;;18.07;16.70;;;10.50;99.90;;;;;;4999671;28;20516;-75
2023/02/16 08:36:55;;;;;;;18.50;17.10;;;10.90;99.90;;;;;;4999989;28;20466;-76
2023/02/16 08:39:27;;;;;;;18.60;17.17;;;11.10;99.90;;;;;;4998844;28;20464;-77
2023/02/16 08:41:55;;;;;;;18.13;16.77;;;11.80;99.90;;;;;;4997806;28;20567;-76
2023/02/16 08:44:25;;;;;;;18.80;17.50;;;11.80;99.90;;;;;;4998123;28;20468;-77
2023/02/16 08:46:55;;;;;;;17.40;16.10;;;11.70;99.90;;;;;;5005359;28;20453;-77
2023/02/16 08:49:23;;;;;;;17.63;16.53;;;12.20;99.90;;;;;;4998409;28;20542;-77
2023/02/16 08:51:54;;;;;;;18.07;16.77;;;12.70;99.90;;;;;;4998085;28;20618;-77
2023/02/16 08:54:27;;;;;;;18.63;17.10;;;13.00;99.90;;;;;;4996807;28;20476;-77
2023/02/16 08:56:57;;;;;;;17.30;16.10;;;13.00;99.90;;;;;;4999954;28;20535;-77
2023/02/16 08:59:26;;;;;;;17.30;16.10;;;13.30;99.90;;;;;;4995261;28;20470;-77
2023/02/16 09:01:56;;;;;;;15.03;14.03;;;13.80;99.90;;;;;;5002432;28;21004;-78
2023/02/16 09:04:27;;;;;;;17.23;15.90;;;13.60;99.90;;;;;;4999955;28;20504;-77
2023/02/16 09:06:56;;;;;;;15.60;14.53;;;14.10;99.90;;;;;;4995822;28;20506;-78
2023/02/16 09:09:27;;;;;;;16.97;15.77;;;14.70;99.90;;;;;;4995936;28;20467;-77
2023/02/16 09:11:56;;;;;;;15.67;14.37;;;14.40;98.20;;;;;;5000502;28;20482;-76
2023/02/16 09:14:25;;;;;;;17.10;15.70;;;14.50;98.00;;;;;;4995918;28;20475;-75
2023/02/16 09:16:53;;;;;;;16.30;15.10;;;14.80;98.30;;;;;;4999996;28;20473;-72
2023/02/16 09:19:21;;;;;;;14.67;13.73;;;14.70;98.10;;;;;;5001762;28;20457;-77
2023/02/16 09:21:50;;;;;;;14.33;13.43;;;14.20;94.20;;;;;;5002915;28;20523;-77
2023/02/16 09:24:21;;;;;;;15.50;14.20;;;14.70;97.60;;;;;;4998877;28;20553;-77
2023/02/16 09:26:50;;;;;;;14.97;13.70;;;15.20;98.40;;;;;;5002065;28;20445;-79
2023/02/16 09:29:20;;;;;;;14.07;13.13;;;15.50;98.60;;;;;;4999305;28;20490;-78
2023/02/16 09:31:48;;;;;;;15.00;14.00;;;15.50;98.40;;;;;;4996008;28;20475;-78
2023/02/16 09:34:19;;;;;;;15.43;14.27;;;15.90;98.70;;;;;;4997053;28;20480;-76
2023/02/16 09:36:47;;;;;;;14.60;13.50;;;16.40;99.20;;;;;;5000215;28;20694;-78
2023/02/16 09:39:16;;;;;;;13.57;12.63;;;16.90;99.90;;;;;;4990125;28;20284;-77
2023/02/16 09:42:03;;;;;;;13.80;12.70;;;17.20;99.90;;;;;;4995833;28;20450;-76
2023/02/16 09:44:45;;;;;;;13.10;12.30;;;17.80;99.90;;;;;;4995612;28;20473;-77
2023/02/16 09:47:20;;;;;;;13.90;12.80;;;18.20;99.90;;;;;;4997457;28;20525;-77
2023/02/16 09:49:50;;;;;;;12.43;11.57;;;18.70;99.90;;;;;;4993360;28;21066;-78
2023/02/16 09:52:23;;;;;;;12.07;11.27;;;18.90;99.90;;;;;;4994613;28;20487;-78
2023/02/16 09:54:54;;;;;;;11.87;11.13;;;19.40;99.90;;;;;;4996624;28;20498;-80
2023/02/16 09:57:41;;;;;;;11.90;11.10;;;19.60;99.90;;;;;;4995309;28;21124;-77
2023/02/16 10:00:23;;;;;;;12.20;11.30;;;19.60;99.90;;;;;;4993150;28;21015;-79
2023/02/16 10:02:57;;;;;;;12.93;11.87;;;19.70;99.90;;;;;;4995907;28;21384;-77
2023/02/16 10:05:31;;;;;;;12.37;11.13;;;19.80;99.90;;;;;;4994923;28;20517;-78
2023/02/16 10:08:08;;;;;;;11.70;11.00;;;20.10;99.90;;;;;;4996573;28;20962;-76
2023/02/16 10:10:47;;;;;;;11.73;10.93;;;20.40;99.90;;;;;;4997164;28;21237;-77
2023/02/16 10:13:28;;;;;;;11.10;10.20;;;20.50;99.90;;;;;;4992996;28;20464;-78
2023/02/16 10:16:00;;;;;;;10.90;10.03;;;20.70;99.90;;;;;;4994193;28;20577;-77
2023/02/16 10:18:32;;;;;;;10.87;10.17;;;21.30;99.90;;;;;;4992169;28;20489;-76
2023/02/16 10:21:02;;;;;;;11.00;10.10;;;21.40;99.90;;;;;;4993697;28;20454;-77
2023/02/16 10:23:44;;;;;;;10.10;9.40;;;21.90;99.90;;;;;;4997030;28;20581;-77
2023/02/16 10:26:24;;;;;;;10.10;9.30;;;22.40;99.90;;;;;;4999457;28;20445;-76
2023/02/16 10:28:56;;;;;;;9.77;8.97;;;22.90;99.90;;;;;;5001730;28;20512;-76
2023/02/16 10:31:32;;;;;;;10.77;9.97;;;23.20;99.90;;;;;;4994987;28;20568;-76
2023/02/16 10:34:23;;;;;;;10.70;10.00;;;23.80;99.90;;;;;;4997720;28;20476;-77
2023/02/16 10:37:30;;;;;;;10.37;9.73;;;25.00;99.90;;;;;;4998181;28;20450;-78
2023/02/16 10:40:14;;;;;;;9.13;8.53;;;26.00;99.90;;;;;;4961440;28;20880;-78
2023/02/16 10:42:49;;;;;;;9.60;9.00;;;26.40;99.90;;;;;;4995593;28;20468;-78
2023/02/16 10:45:25;;;;;;;9.80;9.10;;;27.20;99.90;;;;;;4990534;28;20925;-79
2023/02/16 10:47:54;;;;;;;9.30;8.70;;;27.70;99.90;;;;;;4992621;28;20703;-79
2023/02/16 10:50:27;;;;;;;10.50;9.70;;;28.30;99.90;;;;;;4994472;28;20873;-79
2023/02/16 10:53:00;;;;;;;10.53;9.83;;;28.30;99.90;;;;;;4995170;28;20568;-77
2023/02/16 10:55:28;;;;;;;9.87;8.97;;;29.00;99.90;;;;;;4992733;28;20565;-78
2023/02/16 10:57:59;;;;;;;10.33;9.53;;;28.70;99.90;;;;;;4999789;28;20481;-78
2023/02/16 11:00:43;;;;;;;10.27;9.37;;;28.90;99.90;;;;;;4999649;28;20458;-78
2023/02/16 11:03:14;;;;;;;10.30;9.70;;;29.00;99.90;;;;;;4999907;28;20458;-79
2023/02/16 11:05:42;;;;;;;11.90;11.10;;;29.40;99.90;;;;;;4999399;28;20441;-78
2023/02/16 11:08:12;;;;;;;11.07;10.37;;;29.50;99.90;;;;;;4997597;28;20533;-78
2023/02/16 11:10:47;;;;;;;9.60;9.00;;;29.40;99.90;;;;;;5000860;28;20442;-80
2023/02/16 11:13:25;;;;;;;9.47;8.80;;;29.30;99.90;;;;;;5002538;28;20441;-80
2023/02/16 11:15:58;;;;;;;9.77;9.15;;;29.10;99.90;;;;;;5002647;28;20526;-79
2023/02/16 11:18:38;;;;;;;9.40;8.47;;;28.80;99.90;;;;;;4999795;28;20209;-77
2023/02/16 11:21:07;;;;;;;9.23;8.43;;;29.20;99.90;;;;;;4995700;28;20469;-78
2023/02/16 11:23:37;;;;;;;10.70;9.90;;;29.60;99.90;;;;;;5001586;28;20496;-77
2023/02/16 11:26:07;;;;;;;9.37;8.47;;;30.20;99.90;;;;;;4997245;28;20468;-78
2023/02/16 11:28:37;;;;;;;8.43;7.80;;;29.90;99.90;;;;;;5000828;28;20996;-80
2023/02/16 11:31:15;;;;;;;9.00;8.20;;;30.60;99.90;;;;;;4998248;28;20512;-78
2023/02/16 11:33:55;;;;;;;7.73;7.13;;;29.70;99.90;;;;;;4997473;28;20481;-79
2023/02/16 11:36:31;;;;;;;8.70;8.03;;;29.20;99.90;;;;;;5000110;28;20489;-78
2023/02/16 11:39:02;;;;;;;7.47;6.97;;;29.00;99.90;;;;;;5000216;28;20453;-77
2023/02/16 11:41:32;;;;;;;8.20;7.50;;;28.30;99.90;;;;;;4996686;28;20453;-79
2023/02/16 11:44:02;;;;;;;7.90;7.40;;;26.00;99.90;;;;;;4997322;28;20523;-77
2023/02/16 11:46:39;;;;;;;8.53;7.73;;;24.00;99.90;;;;;;4994837;28;20524;-79
2023/02/16 11:49:22;;;;;;;9.10;8.40;;;22.60;99.90;;;;;;4993741;28;21012;-78
2023/02/16 11:51:50;;;;;;;8.20;7.60;;;21.70;98.80;;;;;;4995076;28;20494;-77
2023/02/16 11:54:19;;;;;;;7.80;7.20;;;21.00;93.90;;;;;;4990596;28;20493;-78
2023/02/16 11:57:02;;;;;;;7.60;7.10;;;20.60;91.40;;;;;;4989585;28;20448;-80
2023/02/16 11:59:35;;;;;;;7.73;7.17;;;20.20;87.00;;;;;;4994465;28;20523;-77
2023/02/16 12:02:30;;;;;;;9.10;8.30;;;20.00;83.60;;;;;;5002036;28;20534;-78
2023/02/16 12:05:16;;;;;;;7.67;7.07;;;19.60;77.80;;;;;;4999937;28;20493;-77
2023/02/16 12:07:52;;;;;;;7.10;6.60;;;19.10;71.60;;;;;;5000779;28;20508;-78
2023/02/16 12:10:28;;;;;;;8.07;7.50;;;18.90;68.00;;;;;;5005923;28;20578;-79
2023/02/16 12:13:03;;;;;;;7.47;6.87;;;19.00;64.10;;;;;;5000922;28;20487;-80
2023/02/16 12:15:39;;;;;;;6.97;6.67;;;19.00;63.50;;;;;;5000413;28;20465;-77
2023/02/16 12:18:25;;;;;;;5.70;5.40;;;18.80;61.50;;;;;;4987496;28;20453;-80
2023/02/16 12:21:02;;;;;;;6.20;5.80;;;18.70;59.90;;;;;;4996458;28;20457;-77
2023/02/16 12:23:38;;;;;;;6.07;5.60;;;18.80;60.30;;;;;;4995794;28;20528;-78
2023/02/16 12:26:30;;;;;;;6.40;5.97;;;18.60;57.50;;;;;;4993449;28;22174;-80
2023/02/16 12:29:09;;;;;;;6.37;6.07;;;18.50;56.00;;;;;;4994706;28;20461;-80
2023/02/16 12:31:54;;;;;;;6.83;6.27;;;18.40;55.70;;;;;;4998356;28;21040;-79
2023/02/16 12:34:32;;;;;;;6.87;6.47;;;18.40;56.10;;;;;;4998235;28;20495;-77
2023/02/16 12:37:05;;;;;;;7.67;7.10;;;18.60;59.10;;;;;;5000212;28;20457;-78
2023/02/16 12:39:45;;;;;;;7.13;6.60;;;18.60;58.80;;;;;;4995231;28;20461;-80
2023/02/16 12:42:33;;;;;;;6.30;5.90;;;18.50;58.20;;;;;;4998706;28;20448;-78
2023/02/16 12:45:06;;;;;;;6.37;5.90;;;18.30;55.60;;;;;;4993158;28;20573;-78
2023/02/16 12:47:39;;;;;;;6.90;6.40;;;18.30;55.30;;;;;;4995792;28;20473;-78
2023/02/16 12:50:18;;;;;;;6.77;6.27;;;18.30;55.40;;;;;;4995219;28;20453;-81
2023/02/16 12:52:51;;;;;;;6.90;6.50;;;18.40;58.10;;;;;;4997367;28;20474;-78
2023/02/16 12:55:24;;;;;;;7.20;6.73;;;18.50;76.40;;;;;;4993893;28;20512;-78
2023/02/16 12:58:00;;;;;;;6.50;6.10;;;18.50;58.70;;;;;;4999269;28;20457;-77
2023/02/16 13:00:39;;;;;;;6.70;6.30;;;18.60;59.00;;;;;;5015647;28;20479;-79
2023/02/16 13:03:20;;;;;;;6.70;6.23;;;18.60;59.30;;;;;;5000661;28;21042;-78
2023/02/16 13:05:57;;;;;;;7.53;6.97;;;18.50;59.50;;;;;;5000325;28;20461;-79
2023/02/16 13:08:38;;;;;;;6.77;6.33;;;18.50;59.10;;;;;;5000064;28;20445;-78
2023/02/16 13:11:14;;;;;;;6.40;6.00;;;18.60;60.10;;;;;;4994701;28;20513;-78
2023/02/16 13:13:45;;;;;;;6.77;6.07;;;18.40;58.60;;;;;;4996772;28;20477;-78
2023/02/16 13:16:17;;;;;;;5.70;5.30;;;18.30;58.50;;;;;;4997756;28;20462;-78
2023/02/16 13:18:57;;;;;;;5.67;5.37;;;18.30;58.40;;;;;;4999577;28;20445;-77
2023/02/16 13:21:49;;;;;;;5.77;5.17;;;18.30;58.00;;;;;;4997671;28;20473;-77
2023/02/16 13:24:30;;;;;;;5.07;4.67;;;18.10;55.40;;;;;;4957113;28;20469;-77
2023/02/16 13:27:11;;;;;;;5.43;5.13;;;18.10;54.50;;;;;;4998532;28;20971;-77
2023/02/16 13:30:09;;;;;;;7.73;5.80;;;18.00;55.20;;;;;;4997211;28;20463;-78
2023/02/16 13:32:59;;;;;;;6.80;6.20;;;18.00;54.80;;;;;;4993946;28;21397;-78
2023/02/16 13:36:08;;;;;;;5.83;5.50;;;18.10;57.00;;;;;;4997050;28;20492;-78
2023/02/16 13:39:06;;;;;;;5.50;5.10;;;18.30;58.40;;;;;;4998673;28;20464;-77
2023/02/16 13:41:45;;;;;;;5.80;5.30;;;18.20;56.20;;;;;;4995504;28;20454;-77
2023/02/16 13:44:16;;;;;;;5.07;4.77;;;18.20;73.70;;;;;;4990743;28;20458;-78
2023/02/16 13:46:49;;;;;;;5.50;5.20;;;18.10;56.30;;;;;;5000886;28;20460;-78